createdAt,value
2017-11-09T00:00:39.104Z,1014.25
2017-11-09T00:01:39.083Z,1014.25
2017-11-09T00:02:39.074Z,1014.25
2017-11-09T00:03:39.061Z,1014.22
2017-11-09T00:04:39.050Z,1014.28
2017-11-09T00:05:39.039Z,1014.26
2017-11-09T00:06:39.029Z,1014.27
2017-11-09T00:07:39.017Z,1014.28
2017-11-09T00:08:39.011Z,1014.32
2017-11-09T00:09:38.996Z,1014.31
2017-11-09T00:10:38.985Z,1014.34
2017-11-09T00:11:38.976Z,1014.33
2017-11-09T00:12:38.987Z,1014.32
2017-11-09T00:13:38.954Z,1014.31
2017-11-09T00:14:38.944Z,1014.30
2017-11-09T00:15:38.932Z,1014.30
2017-11-09T00:16:38.922Z,1014.32
2017-11-09T00:17:38.910Z,1014.28
2017-11-09T00:18:38.902Z,1014.30
2017-11-09T00:19:38.897Z,1014.26
2017-11-09T00:20:38.888Z,1014.30
2017-11-09T00:21:38.868Z,1014.27
2017-11-09T00:22:38.857Z,1014.27
2017-11-09T00:23:38.898Z,1014.26
2017-11-09T00:24:38.860Z,1014.27
2017-11-09T00:25:38.827Z,1014.26
2017-11-09T00:26:38.817Z,1014.26
2017-11-09T00:27:38.807Z,1014.28
2017-11-09T00:28:38.794Z,1014.25
2017-11-09T00:29:38.784Z,1014.27
2017-11-09T00:30:38.780Z,1014.25
2017-11-09T00:31:38.759Z,1014.26
2017-11-09T00:32:38.750Z,1014.30
2017-11-09T00:33:38.737Z,1014.31
2017-11-09T00:34:38.732Z,1014.29
2017-11-09T00:35:38.730Z,1014.29
2017-11-09T00:36:38.706Z,1014.31
2017-11-09T00:37:38.695Z,1014.33
2017-11-09T00:38:38.686Z,1014.29
2017-11-09T00:39:38.673Z,1014.32
2017-11-09T00:40:38.663Z,1014.34
2017-11-09T00:41:38.666Z,1014.34
2017-11-09T00:42:38.640Z,1014.33
2017-11-09T00:43:38.629Z,1014.34
2017-11-09T00:44:38.621Z,1014.35
2017-11-09T00:45:38.610Z,1014.35
2017-11-09T00:46:38.603Z,1014.38
2017-11-09T00:47:38.590Z,1014.39
2017-11-09T00:48:38.581Z,1014.40
2017-11-09T00:49:38.567Z,1014.39
2017-11-09T00:50:38.555Z,1014.40
2017-11-09T00:51:38.549Z,1014.40
2017-11-09T00:52:38.538Z,1014.43
2017-11-09T00:53:38.544Z,1014.41
2017-11-09T00:54:38.511Z,1014.45
2017-11-09T00:55:38.503Z,1014.43
2017-11-09T00:56:38.491Z,1014.43
2017-11-09T00:57:38.479Z,1014.43
2017-11-09T00:58:38.492Z,1014.43
2017-11-09T00:59:38.458Z,1014.46
2017-11-09T01:00:38.447Z,1014.43
2017-11-09T01:01:38.437Z,1014.40
2017-11-09T01:02:38.426Z,1014.40
2017-11-09T01:03:38.414Z,1014.39
2017-11-09T01:04:38.415Z,1014.39
2017-11-09T01:05:38.394Z,1014.40
2017-11-09T01:06:38.382Z,1014.41
2017-11-09T01:07:38.371Z,1014.40
2017-11-09T01:08:38.360Z,1014.43
2017-11-09T01:09:38.350Z,1014.38
2017-11-09T01:10:38.365Z,1014.42
2017-11-09T01:11:38.340Z,1014.41
2017-11-09T01:12:38.325Z,1014.44
2017-11-09T01:13:38.306Z,1014.42
2017-11-09T01:14:38.299Z,1014.45
2017-11-09T01:15:38.310Z,1014.47
2017-11-09T01:16:38.282Z,1014.46
2017-11-09T01:17:38.285Z,1014.45
2017-11-09T01:18:38.256Z,1014.46
2017-11-09T01:19:38.243Z,1014.42
2017-11-09T01:20:38.232Z,1014.44
2017-11-09T01:21:38.242Z,1014.43
2017-11-09T01:22:38.209Z,1014.50
2017-11-09T01:23:38.198Z,1014.49
2017-11-09T01:24:38.189Z,1014.52
2017-11-09T01:25:38.176Z,1014.50
2017-11-09T01:26:38.193Z,1014.52
2017-11-09T01:27:38.165Z,1014.49
2017-11-09T01:28:38.151Z,1014.47
2017-11-09T01:29:38.134Z,1014.47
2017-11-09T01:30:38.124Z,1014.48
2017-11-09T01:31:38.128Z,1014.48
2017-11-09T01:32:38.104Z,1014.51
2017-11-09T01:33:38.102Z,1014.49
2017-11-09T01:34:38.096Z,1014.52
2017-11-09T01:35:38.070Z,1014.51
2017-11-09T01:36:38.058Z,1014.52
2017-11-09T01:37:38.047Z,1014.54
2017-11-09T01:38:38.035Z,1014.53
2017-11-09T01:39:38.036Z,1014.55
2017-11-09T01:40:38.020Z,1014.59
2017-11-09T01:41:38.009Z,1014.59
2017-11-09T01:42:37.995Z,1014.60
2017-11-09T01:43:37.982Z,1014.60
2017-11-09T01:44:37.987Z,1014.56
2017-11-09T01:45:37.960Z,1014.58
2017-11-09T01:46:37.956Z,1014.56
2017-11-09T01:47:37.946Z,1014.57
2017-11-09T01:48:37.927Z,1014.61
2017-11-09T01:49:37.933Z,1014.62
2017-11-09T01:50:37.907Z,1014.65
2017-11-09T01:51:37.894Z,1014.63
2017-11-09T01:52:37.883Z,1014.67
2017-11-09T01:53:37.890Z,1014.70
2017-11-09T01:54:37.865Z,1014.65
2017-11-09T01:55:37.851Z,1014.69
2017-11-09T01:56:37.845Z,1014.73
2017-11-09T01:57:37.829Z,1014.73
2017-11-09T01:58:37.828Z,1014.75
2017-11-09T01:59:37.807Z,1014.76
2017-11-09T02:00:37.799Z,1014.73
2017-11-09T02:01:37.807Z,1014.74
2017-11-09T02:02:37.779Z,1014.73
2017-11-09T02:03:37.764Z,1014.72
2017-11-09T02:04:37.759Z,1014.73
2017-11-09T02:05:37.745Z,1014.68
2017-11-09T02:06:37.736Z,1014.71
2017-11-09T02:07:37.733Z,1014.69
2017-11-09T02:08:37.714Z,1014.69
2017-11-09T02:09:37.700Z,1014.70
2017-11-09T02:10:37.691Z,1014.70
2017-11-09T02:11:37.677Z,1014.70
2017-11-09T02:12:37.681Z,1014.68
2017-11-09T02:13:37.657Z,1014.70
2017-11-09T02:14:37.644Z,1014.72
2017-11-09T02:15:37.670Z,1014.71
2017-11-09T02:16:37.624Z,1014.74
2017-11-09T02:17:37.613Z,1014.68
2017-11-09T02:18:37.604Z,1014.68
2017-11-09T02:19:37.593Z,1014.70
2017-11-09T02:20:37.583Z,1014.68
2017-11-09T02:21:37.588Z,1014.69
2017-11-09T02:22:37.557Z,1014.71
2017-11-09T02:23:37.546Z,1014.71
2017-11-09T02:24:37.553Z,1014.70
2017-11-09T02:25:37.526Z,1014.73
2017-11-09T02:26:37.512Z,1014.72
2017-11-09T02:27:37.518Z,1014.76
2017-11-09T02:28:37.495Z,1014.74
2017-11-09T02:29:37.494Z,1014.76
2017-11-09T02:30:37.470Z,1014.74
2017-11-09T02:31:37.459Z,1014.77
2017-11-09T02:32:37.458Z,1014.77
2017-11-09T02:33:37.448Z,1014.82
2017-11-09T02:34:37.427Z,1014.82
2017-11-09T02:35:37.419Z,1014.86
2017-11-09T02:36:37.410Z,1014.85
2017-11-09T02:37:37.434Z,1014.85
2017-11-09T02:38:37.388Z,1014.84
2017-11-09T02:39:37.385Z,1014.81
2017-11-09T02:40:37.361Z,1014.78
2017-11-09T02:41:37.350Z,1014.80
2017-11-09T02:42:37.339Z,1014.80
2017-11-09T02:43:37.329Z,1014.80
2017-11-09T02:44:37.333Z,1014.81
2017-11-09T02:45:37.329Z,1014.83
2017-11-09T02:46:37.295Z,1014.81
2017-11-09T02:47:37.287Z,1014.83
2017-11-09T02:48:37.288Z,1014.83
2017-11-09T02:49:37.263Z,1014.83
2017-11-09T02:50:37.260Z,1014.79
2017-11-09T02:51:37.278Z,1014.83
2017-11-09T02:52:37.241Z,1014.84
2017-11-09T02:53:37.219Z,1014.82
2017-11-09T02:54:37.207Z,1014.83
2017-11-09T02:55:37.206Z,1014.84
2017-11-09T02:56:37.193Z,1014.87
2017-11-09T02:57:37.180Z,1014.86
2017-11-09T02:58:37.165Z,1014.86
2017-11-09T02:59:37.154Z,1014.86
2017-11-09T03:00:37.146Z,1014.90
2017-11-09T03:01:37.132Z,1014.90
2017-11-09T03:02:37.134Z,1014.91
2017-11-09T03:03:37.109Z,1014.90
2017-11-09T03:04:37.100Z,1014.89
2017-11-09T03:05:37.095Z,1014.88
2017-11-09T03:06:37.077Z,1014.86
2017-11-09T03:07:37.087Z,1014.88
2017-11-09T03:08:37.090Z,1014.83
2017-11-09T03:09:37.112Z,1014.85
2017-11-09T03:10:37.038Z,1014.85
2017-11-09T03:11:37.025Z,1014.84
2017-11-09T03:12:37.014Z,1014.84
2017-11-09T03:13:37.015Z,1014.82
2017-11-09T03:14:36.988Z,1014.79
2017-11-09T03:15:36.983Z,1014.82
2017-11-09T03:16:36.976Z,1014.78
2017-11-09T03:17:36.968Z,1014.77
2017-11-09T03:18:36.946Z,1014.73
2017-11-09T03:19:36.963Z,1014.73
2017-11-09T03:20:36.926Z,1014.76
2017-11-09T03:21:36.929Z,1014.78
2017-11-09T03:22:36.936Z,1014.77
2017-11-09T03:23:36.894Z,1014.75
2017-11-09T03:24:36.883Z,1014.78
2017-11-09T03:25:36.875Z,1014.76
2017-11-09T03:26:36.863Z,1014.79
2017-11-09T03:27:36.850Z,1014.77
2017-11-09T03:28:36.842Z,1014.74
2017-11-09T03:29:36.829Z,1014.76
2017-11-09T03:30:36.819Z,1014.75
2017-11-09T03:31:36.811Z,1014.74
2017-11-09T03:32:36.797Z,1014.70
2017-11-09T03:33:36.793Z,1014.73
2017-11-09T03:34:36.782Z,1014.71
2017-11-09T03:35:36.763Z,1014.76
2017-11-09T03:36:36.778Z,1014.75
2017-11-09T03:37:36.743Z,1014.77
2017-11-09T03:38:36.729Z,1014.77
2017-11-09T03:39:36.724Z,1014.79
2017-11-09T03:40:36.709Z,1014.79
2017-11-09T03:41:36.703Z,1014.81
2017-11-09T03:42:36.683Z,1014.76
2017-11-09T03:43:36.683Z,1014.76
2017-11-09T03:44:36.665Z,1014.78
2017-11-09T03:45:36.661Z,1014.79
2017-11-09T03:46:36.647Z,1014.82
2017-11-09T03:47:36.632Z,1014.81
2017-11-09T03:48:36.630Z,1014.78
2017-11-09T03:49:36.617Z,1014.79
2017-11-09T03:50:36.649Z,1014.76
2017-11-09T03:51:36.610Z,1014.78
2017-11-09T03:52:36.582Z,1014.75
2017-11-09T03:53:36.566Z,1014.79
2017-11-09T03:54:36.578Z,1014.76
2017-11-09T03:55:36.571Z,1014.73
2017-11-09T03:56:36.537Z,1014.75
2017-11-09T03:57:36.527Z,1014.77
2017-11-09T03:58:36.510Z,1014.78
2017-11-09T03:59:36.501Z,1014.78
2017-11-09T04:00:36.496Z,1014.76
2017-11-09T04:01:36.482Z,1014.76
2017-11-09T04:02:36.469Z,1014.80
2017-11-09T04:03:36.467Z,1014.76
2017-11-09T04:04:36.446Z,1014.74
2017-11-09T04:05:36.446Z,1014.74
2017-11-09T04:06:36.442Z,1014.72
2017-11-09T04:07:36.414Z,1014.69
2017-11-09T04:08:36.407Z,1014.75
2017-11-09T04:09:36.398Z,1014.74
2017-11-09T04:10:36.385Z,1014.69
2017-11-09T04:11:36.378Z,1014.73
2017-11-09T04:12:36.367Z,1014.70
2017-11-09T04:13:36.351Z,1014.71
2017-11-09T04:14:36.395Z,1014.72
2017-11-09T04:15:36.361Z,1014.71
2017-11-09T04:16:36.322Z,1014.70
2017-11-09T04:17:36.305Z,1014.70
2017-11-09T04:18:36.317Z,1014.71
2017-11-09T04:19:36.302Z,1014.72
2017-11-09T04:20:36.278Z,1014.74
2017-11-09T04:21:36.260Z,1014.71
2017-11-09T04:22:36.250Z,1014.73
2017-11-09T04:23:36.239Z,1014.67
2017-11-09T04:24:36.234Z,1014.69
2017-11-09T04:25:36.218Z,1014.67
2017-11-09T04:26:36.209Z,1014.68
2017-11-09T04:27:36.196Z,1014.68
2017-11-09T04:28:36.184Z,1014.67
2017-11-09T04:29:36.179Z,1014.64
2017-11-09T04:30:36.168Z,1014.67
2017-11-09T04:31:36.150Z,1014.66
2017-11-09T04:32:36.140Z,1014.67
2017-11-09T04:33:36.129Z,1014.66
2017-11-09T04:34:36.117Z,1014.67
2017-11-09T04:35:36.106Z,1014.69
2017-11-09T04:36:36.096Z,1014.66
2017-11-09T04:37:36.090Z,1014.68
2017-11-09T04:38:36.073Z,1014.68
2017-11-09T04:39:36.062Z,1014.64
2017-11-09T04:40:36.052Z,1014.61
2017-11-09T04:41:36.042Z,1014.63
2017-11-09T04:42:36.031Z,1014.63
2017-11-09T04:43:36.040Z,1014.61
2017-11-09T04:44:36.007Z,1014.61
2017-11-09T04:45:35.997Z,1014.64
2017-11-09T04:46:35.991Z,1014.66
2017-11-09T04:47:35.980Z,1014.65
2017-11-09T04:48:35.970Z,1014.61
2017-11-09T04:49:35.954Z,1014.65
2017-11-09T04:50:35.945Z,1014.62
2017-11-09T04:51:35.941Z,1014.64
2017-11-09T04:52:35.925Z,1014.66
2017-11-09T04:53:35.912Z,1014.65
2017-11-09T04:54:35.907Z,1014.62
2017-11-09T04:55:35.889Z,1014.66
2017-11-09T04:56:35.900Z,1014.64
2017-11-09T04:57:35.870Z,1014.69
2017-11-09T04:58:35.855Z,1014.73
2017-11-09T04:59:35.852Z,1014.72
2017-11-09T05:00:35.836Z,1014.71
2017-11-09T05:01:35.831Z,1014.73
2017-11-09T05:02:35.812Z,1014.71
2017-11-09T05:03:35.804Z,1014.74
2017-11-09T05:04:35.793Z,1014.70
2017-11-09T05:05:35.784Z,1014.75
2017-11-09T05:06:35.775Z,1014.76
2017-11-09T05:07:35.763Z,1014.75
2017-11-09T05:08:35.748Z,1014.75
2017-11-09T05:09:35.735Z,1014.75
2017-11-09T05:10:35.729Z,1014.79
2017-11-09T05:11:35.717Z,1014.75
2017-11-09T05:12:35.705Z,1014.74
2017-11-09T05:13:35.707Z,1014.76
2017-11-09T05:14:35.682Z,1014.73
2017-11-09T05:15:35.672Z,1014.72
2017-11-09T05:16:35.681Z,1014.70
2017-11-09T05:17:35.650Z,1014.73
2017-11-09T05:18:35.647Z,1014.73
2017-11-09T05:19:35.627Z,1014.70
2017-11-09T05:20:35.623Z,1014.70
2017-11-09T05:21:35.605Z,1014.72
2017-11-09T05:22:35.607Z,1014.75
2017-11-09T05:23:35.588Z,1014.76
2017-11-09T05:24:35.579Z,1014.77
2017-11-09T05:25:35.562Z,1014.80
2017-11-09T05:26:35.552Z,1014.79
2017-11-09T05:27:35.542Z,1014.80
2017-11-09T05:28:35.534Z,1014.80
2017-11-09T05:29:35.518Z,1014.77
2017-11-09T05:30:35.507Z,1014.77
2017-11-09T05:31:35.499Z,1014.76
2017-11-09T05:32:35.489Z,1014.78
2017-11-09T05:33:35.477Z,1014.78
2017-11-09T05:34:35.461Z,1014.77
2017-11-09T05:35:35.452Z,1014.81
2017-11-09T05:36:35.443Z,1014.82
2017-11-09T05:37:35.429Z,1014.84
2017-11-09T05:38:35.420Z,1014.87
2017-11-09T05:39:35.406Z,1014.86
2017-11-09T05:40:35.395Z,1014.85
2017-11-09T05:41:35.382Z,1014.83
2017-11-09T05:42:35.373Z,1014.87
2017-11-09T05:43:35.365Z,1014.89
2017-11-09T05:44:35.354Z,1014.89
2017-11-09T05:45:35.344Z,1014.88
2017-11-09T05:46:35.351Z,1014.91
2017-11-09T05:47:35.316Z,1014.88
2017-11-09T05:48:35.306Z,1014.89
2017-11-09T05:49:35.296Z,1014.87
2017-11-09T05:50:35.283Z,1014.92
2017-11-09T05:51:35.279Z,1014.91
2017-11-09T05:52:35.266Z,1014.93
2017-11-09T05:53:35.249Z,1014.96
2017-11-09T05:54:35.250Z,1014.97
2017-11-09T05:55:35.230Z,1014.96
2017-11-09T05:56:35.217Z,1014.97
2017-11-09T05:57:35.209Z,1015.00
2017-11-09T05:58:35.196Z,1015.02
2017-11-09T05:59:35.184Z,1015.00
2017-11-09T06:00:35.179Z,1015.03
2017-11-09T06:01:35.162Z,1014.99
2017-11-09T06:02:35.155Z,1015.01
2017-11-09T06:03:35.142Z,1014.97
2017-11-09T06:04:35.128Z,1014.97
2017-11-09T06:05:35.119Z,1015.01
2017-11-09T06:06:35.107Z,1014.98
2017-11-09T06:07:35.096Z,1014.99
2017-11-09T06:08:35.086Z,1015.01
2017-11-09T06:09:35.077Z,1015.01
2017-11-09T06:10:35.062Z,1014.99
2017-11-09T06:11:35.086Z,1014.97
2017-11-09T06:12:35.041Z,1014.97
2017-11-09T06:13:35.033Z,1014.95
2017-11-09T06:14:35.030Z,1014.96
2017-11-09T06:15:35.044Z,1014.96
2017-11-09T06:16:35.056Z,1014.95
2017-11-09T06:17:35.008Z,1014.96
2017-11-09T06:18:34.988Z,1014.95
2017-11-09T06:19:34.967Z,1014.99
2017-11-09T06:20:34.998Z,1014.95
2017-11-09T06:21:34.948Z,1015.02
2017-11-09T06:22:34.932Z,1014.99
2017-11-09T06:23:34.919Z,1015.04
2017-11-09T06:24:34.914Z,1015.03
2017-11-09T06:25:34.915Z,1015.03
2017-11-09T06:26:34.889Z,1015.06
2017-11-09T06:27:34.878Z,1015.02
2017-11-09T06:28:34.876Z,1015.03
2017-11-09T06:29:34.855Z,1015.04
2017-11-09T06:30:34.883Z,1015.03
2017-11-09T06:31:34.852Z,1015.06
2017-11-09T06:32:34.860Z,1015.06
2017-11-09T06:33:34.853Z,1015.04
2017-11-09T06:34:34.802Z,1015.01
2017-11-09T06:35:34.803Z,1014.99
2017-11-09T06:36:34.799Z,1015.01
2017-11-09T06:37:34.783Z,1015.00
2017-11-09T06:38:34.784Z,1015.05
2017-11-09T06:39:34.748Z,1015.04
2017-11-09T06:40:34.731Z,1015.08
2017-11-09T06:41:34.733Z,1015.11
2017-11-09T06:42:34.709Z,1015.08
2017-11-09T06:43:34.703Z,1015.09
2017-11-09T06:44:34.692Z,1015.16
2017-11-09T06:45:34.682Z,1015.14
2017-11-09T06:46:34.664Z,1015.17
2017-11-09T06:47:34.653Z,1015.15
2017-11-09T06:48:34.643Z,1015.17
2017-11-09T06:49:34.637Z,1015.17
2017-11-09T06:50:34.620Z,1015.20
2017-11-09T06:51:34.618Z,1015.15
2017-11-09T06:52:34.600Z,1015.20
2017-11-09T06:53:34.586Z,1015.18
2017-11-09T06:54:34.577Z,1015.21
2017-11-09T06:55:34.568Z,1015.21
2017-11-09T06:56:34.561Z,1015.17
2017-11-09T06:57:34.545Z,1015.21
2017-11-09T06:58:34.534Z,1015.16
2017-11-09T06:59:34.520Z,1015.17
2017-11-09T07:00:34.508Z,1015.19
2017-11-09T07:01:34.498Z,1015.18
2017-11-09T07:02:34.487Z,1015.22
2017-11-09T07:03:34.495Z,1015.22
2017-11-09T07:04:34.465Z,1015.26
2017-11-09T07:05:34.453Z,1015.23
2017-11-09T07:06:34.447Z,1015.24
2017-11-09T07:07:34.431Z,1015.22
2017-11-09T07:08:34.420Z,1015.20
2017-11-09T07:09:34.408Z,1015.21
2017-11-09T07:10:34.398Z,1015.21
2017-11-09T07:11:34.385Z,1015.25
2017-11-09T07:12:34.379Z,1015.27
2017-11-09T07:13:34.366Z,1015.29
2017-11-09T07:14:34.354Z,1015.29
2017-11-09T07:15:34.524Z,1015.27
2017-11-09T07:16:34.331Z,1015.30
2017-11-09T07:17:34.319Z,1015.29
2017-11-09T07:18:34.326Z,1015.26
2017-11-09T07:19:34.299Z,1015.26
2017-11-09T07:20:34.290Z,1015.26
2017-11-09T07:21:34.275Z,1015.26
2017-11-09T07:22:34.266Z,1015.25
2017-11-09T07:23:34.254Z,1015.29
2017-11-09T07:24:34.245Z,1015.27
2017-11-09T07:25:34.233Z,1015.28
2017-11-09T07:26:34.229Z,1015.26
2017-11-09T07:27:34.210Z,1015.31
2017-11-09T07:28:34.199Z,1015.34
2017-11-09T07:29:34.191Z,1015.34
2017-11-09T07:30:34.177Z,1015.35
2017-11-09T07:31:34.165Z,1015.39
2017-11-09T07:32:34.154Z,1015.35
2017-11-09T07:33:34.150Z,1015.36
2017-11-09T07:34:34.132Z,1015.36
2017-11-09T07:35:34.127Z,1015.32
2017-11-09T07:36:34.110Z,1015.38
2017-11-09T07:37:34.101Z,1015.35
2017-11-09T07:38:34.090Z,1015.37
2017-11-09T07:39:34.080Z,1015.35
2017-11-09T07:40:34.066Z,1015.34
2017-11-09T07:41:34.072Z,1015.31
2017-11-09T07:42:34.043Z,1015.33
2017-11-09T07:43:34.034Z,1015.32
2017-11-09T07:44:34.037Z,1015.35
2017-11-09T07:45:34.013Z,1015.34
2017-11-09T07:46:34.003Z,1015.35
2017-11-09T07:47:33.998Z,1015.34
2017-11-09T07:48:33.980Z,1015.36
2017-11-09T07:49:33.970Z,1015.34
2017-11-09T07:50:33.955Z,1015.36
2017-11-09T07:51:33.972Z,1015.38
2017-11-09T07:52:33.934Z,1015.35
2017-11-09T07:53:33.923Z,1015.37
2017-11-09T07:54:33.911Z,1015.37
2017-11-09T07:55:33.906Z,1015.44
2017-11-09T07:56:33.892Z,1015.45
2017-11-09T07:57:33.891Z,1015.45
2017-11-09T07:58:33.892Z,1015.38
2017-11-09T07:59:33.857Z,1015.43
2017-11-09T08:00:33.846Z,1015.38
2017-11-09T08:01:33.834Z,1015.42
2017-11-09T08:02:36.499Z,1015.39
2017-11-09T08:03:33.825Z,1015.46
2017-11-09T08:04:33.823Z,1015.46
2017-11-09T08:05:33.791Z,1015.50
2017-11-09T08:06:33.779Z,1015.53
2017-11-09T08:07:33.768Z,1015.53
2017-11-09T08:08:33.759Z,1015.55
2017-11-09T08:09:33.748Z,1015.55
2017-11-09T08:10:33.782Z,1015.56
2017-11-09T08:11:33.726Z,1015.59
2017-11-09T08:12:34.471Z,1015.59
2017-11-09T08:13:33.707Z,1015.61
2017-11-09T08:14:33.691Z,1015.60
2017-11-09T08:15:33.695Z,1015.60
2017-11-09T08:16:33.680Z,1015.61
2017-11-09T08:17:33.665Z,1015.59
2017-11-09T08:18:33.650Z,1015.59
2017-11-09T08:19:33.641Z,1015.60
2017-11-09T08:20:33.625Z,1015.62
2017-11-09T08:21:33.620Z,1015.60
2017-11-09T08:22:33.604Z,1015.62
2017-11-09T08:23:33.609Z,1015.64
2017-11-09T08:24:33.582Z,1015.62
2017-11-09T08:25:33.588Z,1015.62
2017-11-09T08:26:33.565Z,1015.66
2017-11-09T08:27:33.577Z,1015.64
2017-11-09T08:28:33.542Z,1015.65
2017-11-09T08:29:33.537Z,1015.67
2017-11-09T08:30:33.525Z,1015.70
2017-11-09T08:31:33.526Z,1015.71
2017-11-09T08:32:33.505Z,1015.73
2017-11-09T08:33:33.506Z,1015.72
2017-11-09T08:34:33.473Z,1015.64
2017-11-09T08:35:33.464Z,1015.64
2017-11-09T08:36:33.454Z,1015.63
2017-11-09T08:37:33.442Z,1015.63
2017-11-09T08:38:33.435Z,1015.64
2017-11-09T08:39:33.454Z,1015.66
2017-11-09T08:40:33.463Z,1015.65
2017-11-09T08:41:33.458Z,1015.64
2017-11-09T08:42:33.387Z,1015.63
2017-11-09T08:43:33.380Z,1015.66
2017-11-09T08:44:33.384Z,1015.64
2017-11-09T08:45:33.360Z,1015.63
2017-11-09T08:46:33.343Z,1015.65
2017-11-09T08:47:33.333Z,1015.63
2017-11-09T08:48:33.325Z,1015.63
2017-11-09T08:49:33.325Z,1015.61
2017-11-09T08:50:33.313Z,1015.65
2017-11-09T08:51:33.295Z,1015.59
2017-11-09T08:52:33.277Z,1015.63
2017-11-09T08:53:33.277Z,1015.63
2017-11-09T08:54:33.259Z,1015.60
2017-11-09T08:55:33.256Z,1015.60
2017-11-09T08:56:33.243Z,1015.61
2017-11-09T08:57:33.230Z,1015.64
2017-11-09T08:58:33.210Z,1015.61
2017-11-09T08:59:33.210Z,1015.61
2017-11-09T09:00:33.192Z,1015.62
2017-11-09T09:01:33.183Z,1015.55
2017-11-09T09:02:33.169Z,1015.56
2017-11-09T09:03:33.156Z,1015.63
2017-11-09T09:04:33.151Z,1015.63
2017-11-09T09:05:33.138Z,1015.68
2017-11-09T09:06:33.124Z,1015.67
2017-11-09T09:07:33.116Z,1015.64
2017-11-09T09:08:33.112Z,1015.66
2017-11-09T09:09:33.125Z,1015.65
2017-11-09T09:10:33.084Z,1015.65
2017-11-09T09:11:33.097Z,1015.66
2017-11-09T09:12:33.070Z,1015.69
2017-11-09T09:13:33.052Z,1015.62
2017-11-09T09:14:33.042Z,1015.68
2017-11-09T09:15:33.042Z,1015.69
2017-11-09T09:16:33.018Z,1015.69
2017-11-09T09:17:33.009Z,1015.71
2017-11-09T09:18:32.998Z,1015.70
2017-11-09T09:19:33.005Z,1015.73
2017-11-09T09:20:32.978Z,1015.73
2017-11-09T09:21:32.968Z,1015.71
2017-11-09T09:22:32.957Z,1015.66
2017-11-09T09:23:32.951Z,1015.68
2017-11-09T09:24:32.938Z,1015.62
2017-11-09T09:25:32.932Z,1015.63
2017-11-09T09:26:32.944Z,1015.64
2017-11-09T09:27:32.907Z,1015.66
2017-11-09T09:28:32.899Z,1015.66
2017-11-09T09:29:32.893Z,1015.62
2017-11-09T09:30:32.876Z,1015.66
2017-11-09T09:31:32.868Z,1015.66
2017-11-09T09:32:32.871Z,1015.65
2017-11-09T09:33:32.863Z,1015.65
2017-11-09T09:34:32.842Z,1015.66
2017-11-09T09:35:32.834Z,1015.65
2017-11-09T09:36:32.821Z,1015.69
2017-11-09T09:37:32.815Z,1015.62
2017-11-09T09:38:32.815Z,1015.62
2017-11-09T09:39:32.805Z,1015.59
2017-11-09T09:40:32.784Z,1015.58
2017-11-09T09:41:32.771Z,1015.57
2017-11-09T09:42:32.760Z,1015.62
2017-11-09T09:43:32.751Z,1015.62
2017-11-09T09:44:32.757Z,1015.66
2017-11-09T09:45:32.734Z,1015.58
2017-11-09T09:46:32.723Z,1015.66
2017-11-09T09:47:32.715Z,1015.67
2017-11-09T09:48:32.715Z,1015.68
2017-11-09T09:49:32.694Z,1015.69
2017-11-09T09:50:32.689Z,1015.65
2017-11-09T09:51:32.675Z,1015.63
2017-11-09T09:52:32.688Z,1015.66
2017-11-09T09:53:32.658Z,1015.66
2017-11-09T09:54:32.665Z,1015.61
2017-11-09T09:55:32.757Z,1015.65
2017-11-09T09:56:32.632Z,1015.63
2017-11-09T09:57:32.633Z,1015.63
2017-11-09T09:58:32.622Z,1015.64
2017-11-09T09:59:32.601Z,1015.68
2017-11-09T10:00:32.595Z,1015.69
2017-11-09T10:01:32.584Z,1015.69
2017-11-09T10:02:32.584Z,1015.75
2017-11-09T10:03:32.565Z,1015.71
2017-11-09T10:04:32.734Z,1015.64
2017-11-09T10:05:32.560Z,1015.69
2017-11-09T10:06:32.543Z,1015.63
2017-11-09T10:07:32.528Z,1015.63
2017-11-09T10:08:32.516Z,1015.63
2017-11-09T10:09:32.612Z,1015.59
2017-11-09T10:10:32.500Z,1015.57
2017-11-09T10:11:32.536Z,1015.57
2017-11-09T10:12:32.479Z,1015.62
2017-11-09T10:13:32.470Z,1015.56
2017-11-09T10:14:32.462Z,1015.56
2017-11-09T10:15:32.447Z,1015.64
2017-11-09T10:16:32.439Z,1015.60
2017-11-09T10:17:32.439Z,1015.65
2017-11-09T10:18:32.439Z,1015.61
2017-11-09T10:19:32.410Z,1015.66
2017-11-09T10:20:32.402Z,1015.65
2017-11-09T10:21:32.393Z,1015.59
2017-11-09T10:22:32.386Z,1015.63
2017-11-09T10:23:32.468Z,1015.62
2017-11-09T10:24:32.362Z,1015.61
2017-11-09T10:25:32.352Z,1015.66
2017-11-09T10:26:32.345Z,1015.60
2017-11-09T10:27:32.330Z,1015.60
2017-11-09T10:28:32.321Z,1015.55
2017-11-09T10:29:32.312Z,1015.56
2017-11-09T10:30:32.300Z,1015.50
2017-11-09T10:31:32.291Z,1015.55
2017-11-09T10:32:32.284Z,1015.57
2017-11-09T10:33:32.275Z,1015.57
2017-11-09T10:34:32.263Z,1015.57
2017-11-09T10:35:32.252Z,1015.60
2017-11-09T10:36:32.243Z,1015.55
2017-11-09T10:37:32.237Z,1015.61
2017-11-09T10:38:32.231Z,1015.57
2017-11-09T10:39:32.213Z,1015.57
2017-11-09T10:40:32.202Z,1015.56
2017-11-09T10:41:32.253Z,1015.55
2017-11-09T10:42:33.016Z,1015.55
2017-11-09T10:43:32.173Z,1015.50
2017-11-09T10:44:32.233Z,1015.46
2017-11-09T10:45:32.215Z,1015.47
2017-11-09T10:46:32.146Z,1015.47
2017-11-09T10:47:32.142Z,1015.44
2017-11-09T10:48:32.137Z,1015.41
2017-11-09T10:49:32.149Z,1015.39
2017-11-09T10:50:32.105Z,1015.39
2017-11-09T10:51:32.099Z,1015.36
2017-11-09T10:52:32.089Z,1015.45
2017-11-09T10:53:32.081Z,1015.47
2017-11-09T10:54:32.066Z,1015.46
2017-11-09T10:55:32.055Z,1015.42
2017-11-09T10:56:32.049Z,1015.43
2017-11-09T10:57:32.098Z,1015.40
2017-11-09T10:58:32.027Z,1015.40
2017-11-09T10:59:32.031Z,1015.38
2017-11-09T11:00:32.006Z,1015.40
2017-11-09T11:01:31.996Z,1015.32
2017-11-09T11:02:31.989Z,1015.29
2017-11-09T11:03:31.977Z,1015.29
2017-11-09T11:04:31.970Z,1015.25
2017-11-09T11:05:31.958Z,1015.30
2017-11-09T11:06:31.989Z,1015.26
2017-11-09T11:07:31.942Z,1015.26
2017-11-09T11:08:31.928Z,1015.28
2017-11-09T11:09:31.920Z,1015.27
2017-11-09T11:10:31.909Z,1015.31
2017-11-09T11:11:31.904Z,1015.36
2017-11-09T11:12:31.887Z,1015.40
2017-11-09T11:13:31.892Z,1015.41
2017-11-09T11:14:31.868Z,1015.37
2017-11-09T11:15:31.860Z,1015.35
2017-11-09T11:16:31.849Z,1015.37
2017-11-09T11:17:31.838Z,1015.33
2017-11-09T11:18:31.830Z,1015.35
2017-11-09T11:19:31.831Z,1015.32
2017-11-09T11:20:31.812Z,1015.29
2017-11-09T11:21:31.808Z,1015.28
2017-11-09T11:22:31.787Z,1015.24
2017-11-09T11:23:31.779Z,1015.22
2017-11-09T11:24:31.769Z,1015.24
2017-11-09T11:25:31.767Z,1015.19
2017-11-09T11:26:31.750Z,1015.16
2017-11-09T11:27:31.744Z,1015.15
2017-11-09T11:28:31.735Z,1015.18
2017-11-09T11:29:31.728Z,1015.19
2017-11-09T11:30:31.712Z,1015.18
2017-11-09T11:31:31.708Z,1015.18
2017-11-09T11:32:31.687Z,1015.21
2017-11-09T11:33:31.677Z,1015.19
2017-11-09T11:34:31.673Z,1015.19
2017-11-09T11:35:31.659Z,1015.16
2017-11-09T11:36:31.665Z,1015.19
2017-11-09T11:37:31.636Z,1015.16
2017-11-09T11:38:31.628Z,1015.15
2017-11-09T11:39:31.620Z,1015.17
2017-11-09T11:40:31.610Z,1015.16
2017-11-09T11:41:31.598Z,1015.20
2017-11-09T11:42:31.594Z,1015.16
2017-11-09T11:43:31.580Z,1015.15
2017-11-09T11:44:31.569Z,1015.15
2017-11-09T11:45:31.563Z,1015.13
2017-11-09T11:46:31.552Z,1015.11
2017-11-09T11:47:31.546Z,1015.09
2017-11-09T11:48:31.531Z,1015.14
2017-11-09T11:49:31.535Z,1015.18
2017-11-09T11:50:31.516Z,1015.16
2017-11-09T11:51:31.495Z,1015.20
2017-11-09T11:52:31.496Z,1015.18
2017-11-09T11:53:31.477Z,1015.17
2017-11-09T11:54:31.469Z,1015.16
2017-11-09T11:55:31.457Z,1015.16
2017-11-09T11:56:31.453Z,1015.22
2017-11-09T11:57:31.436Z,1015.22
2017-11-09T11:58:31.427Z,1015.20
2017-11-09T11:59:31.414Z,1015.25
2017-11-09T12:00:31.412Z,1015.30
2017-11-09T12:01:31.394Z,1015.26
2017-11-09T12:02:31.393Z,1015.19
2017-11-09T12:03:31.376Z,1015.18
2017-11-09T12:04:31.362Z,1015.18
2017-11-09T12:05:31.353Z,1015.17